sensor_id;sensor_type;location;lat;lon;timestamp;temperature;humidity
18218;DHT22;9234;49.344;11.120;2022-11-15T00:01:36;4.70;99.90
18218;DHT22;9234;49.344;11.120;2022-11-15T00:04:24;4.70;99.90
18218;DHT22;9234;49.344;11.120;2022-11-15T00:07:11;4.70;99.90
18218;DHT22;9234;49.344;11.120;2022-11-15T00:10:17;4.70;99.90
18218;DHT22;9234;49.344;11.120;2022-11-15T00:13:05;4.70;99.90
18218;DHT22;9234;49.344;11.120;2022-11-15T00:15:53;4.70;99.90
18218;DHT22;9234;49.344;11.120;2022-11-15T00:18:44;4.60;99.90
18218;DHT22;9234;49.344;11.120;2022-11-15T00:21:35;4.60;99.90
18218;DHT22;9234;49.344;11.120;2022-11-15T00:24:22;4.60;99.90
18218;DHT22;9234;49.344;11.120;2022-11-15T00:27:09;4.50;99.90
18218;DHT22;9234;49.344;11.120;2022-11-15T00:29:56;4.50;99.90
18218;DHT22;9234;49.344;11.120;2022-11-15T00:32:43;4.50;99.90
18218;DHT22;9234;49.344;11.120;2022-11-15T00:35:33;4.40;99.90
18218;DHT22;9234;49.344;11.120;2022-11-15T00:38:20;4.40;99.90
18218;DHT22;9234;49.344;11.120;2022-11-15T00:41:07;4.40;99.90
18218;DHT22;9234;49.344;11.120;2022-11-15T00:43:54;4.30;99.90
18218;DHT22;9234;49.344;11.120;2022-11-15T00:46:41;4.30;99.90
18218;DHT22;9234;49.344;11.120;2022-11-15T00:49:28;4.30;99.90
18218;DHT22;9234;49.344;11.120;2022-11-15T00:52:17;4.20;99.90
18218;DHT22;9234;49.344;11.120;2022-11-15T00:55:04;4.20;99.90
18218;DHT22;9234;49.344;11.120;2022-11-15T00:57:51;4.20;99.90
18218;DHT22;9234;49.344;11.120;2022-11-15T01:00:38;4.10;99.90
18218;DHT22;9234;49.344;11.120;2022-11-15T01:03:25;4.10;99.90
18218;DHT22;9234;49.344;11.120;2022-11-15T01:06:12;4.10;99.90
18218;DHT22;9234;49.344;11.120;2022-11-15T01:09:00;4.10;99.90
18218;DHT22;9234;49.344;11.120;2022-11-15T01:11:46;4.00;99.90
18218;DHT22;9234;49.344;11.120;2022-11-15T01:14:33;3.90;99.90
18218;DHT22;9234;49.344;11.120;2022-11-15T01:17:20;3.90;99.90
18218;DHT22;9234;49.344;11.120;2022-11-15T01:20:08;3.90;99.90
18218;DHT22;9234;49.344;11.120;2022-11-15T01:22:55;3.90;99.90
18218;DHT22;9234;49.344;11.120;2022-11-15T01:25:43;3.80;99.90
18218;DHT22;9234;49.344;11.120;2022-11-15T01:28:31;3.80;99.90
18218;DHT22;9234;49.344;11.120;2022-11-15T01:31:20;3.80;99.90
18218;DHT22;9234;49.344;11.120;2022-11-15T01:34:07;3.70;99.90
18218;DHT22;9234;49.344;11.120;2022-11-15T01:36:54;3.70;99.90
18218;DHT22;9234;49.344;11.120;2022-11-15T01:39:40;3.60;99.90
18218;DHT22;9234;49.344;11.120;2022-11-15T01:42:29;3.60;99.90
18218;DHT22;9234;49.344;11.120;2022-11-15T01:45:16;3.60;99.90
18218;DHT22;9234;49.344;11.120;2022-11-15T01:48:04;3.60;99.90
18218;DHT22;9234;49.344;11.120;2022-11-15T01:50:53;3.50;99.90
18218;DHT22;9234;49.344;11.120;2022-11-15T01:53:42;3.50;99.90
18218;DHT22;9234;49.344;11.120;2022-11-15T01:56:36;3.50;99.90
18218;DHT22;9234;49.344;11.120;2022-11-15T01:59:31;3.50;99.90
18218;DHT22;9234;49.344;11.120;2022-11-15T02:02:18;3.50;99.90
18218;DHT22;9234;49.344;11.120;2022-11-15T02:05:06;3.40;99.90
18218;DHT22;9234;49.344;11.120;2022-11-15T02:07:53;3.40;99.90
18218;DHT22;9234;49.344;11.120;2022-11-15T02:10:40;3.40;99.90
18218;DHT22;9234;49.344;11.120;2022-11-15T02:13:27;3.40;99.90
18218;DHT22;9234;49.344;11.120;2022-11-15T02:16:23;3.40;99.90
18218;DHT22;9234;49.344;11.120;2022-11-15T02:19:29;3.50;99.90
18218;DHT22;9234;49.344;11.120;2022-11-15T02:22:37;3.60;99.90
18218;DHT22;9234;49.344;11.120;2022-11-15T02:25:41;3.70;99.90
18218;DHT22;9234;49.344;11.120;2022-11-15T02:28:45;3.70;99.90
18218;DHT22;9234;49.344;11.120;2022-11-15T02:31:45;3.90;99.90
18218;DHT22;9234;49.344;11.120;2022-11-15T02:34:43;4.00;99.90
18218;DHT22;9234;49.344;11.120;2022-11-15T02:37:42;4.00;99.90
18218;DHT22;9234;49.344;11.120;2022-11-15T02:40:38;4.20;99.90
18218;DHT22;9234;49.344;11.120;2022-11-15T02:43:33;4.20;99.90
18218;DHT22;9234;49.344;11.120;2022-11-15T02:46:49;4.30;99.90
18218;DHT22;9234;49.344;11.120;2022-11-15T02:49:59;4.40;99.90
18218;DHT22;9234;49.344;11.120;2022-11-15T02:52:49;4.40;99.90
18218;DHT22;9234;49.344;11.120;2022-11-15T02:55:37;4.40;99.90
18218;DHT22;9234;49.344;11.120;2022-11-15T02:58:46;4.50;99.90
18218;DHT22;9234;49.344;11.120;2022-11-15T03:01:59;4.40;99.90
18218;DHT22;9234;49.344;11.120;2022-11-15T03:04:58;4.40;99.90
18218;DHT22;9234;49.344;11.120;2022-11-15T03:07:55;4.40;99.90
18218;DHT22;9234;49.344;11.120;2022-11-15T03:10:55;4.30;99.90
18218;DHT22;9234;49.344;11.120;2022-11-15T03:13:54;4.30;99.90
18218;DHT22;9234;49.344;11.120;2022-11-15T03:16:49;4.20;99.90
18218;DHT22;9234;49.344;11.120;2022-11-15T03:19:46;4.20;99.90
18218;DHT22;9234;49.344;11.120;2022-11-15T03:22:36;4.10;99.90
18218;DHT22;9234;49.344;11.120;2022-11-15T03:25:28;4.10;99.90
18218;DHT22;9234;49.344;11.120;2022-11-15T03:28:20;4.00;99.90
18218;DHT22;9234;49.344;11.120;2022-11-15T03:31:13;3.90;99.90
18218;DHT22;9234;49.344;11.120;2022-11-15T03:34:26;3.90;99.90
18218;DHT22;9234;49.344;11.120;2022-11-15T03:37:15;3.80;99.90
18218;DHT22;9234;49.344;11.120;2022-11-15T03:40:04;3.80;99.90
18218;DHT22;9234;49.344;11.120;2022-11-15T03:42:59;3.70;99.90
18218;DHT22;9234;49.344;11.120;2022-11-15T03:45:55;3.60;99.90
18218;DHT22;9234;49.344;11.120;2022-11-15T03:48:50;3.60;99.90
18218;DHT22;9234;49.344;11.120;2022-11-15T03:51:42;3.60;99.90
18218;DHT22;9234;49.344;11.120;2022-11-15T03:54:29;3.50;99.90
18218;DHT22;9234;49.344;11.120;2022-11-15T03:57:16;3.50;99.90
18218;DHT22;9234;49.344;11.120;2022-11-15T04:00:05;3.50;99.90
18218;DHT22;9234;49.344;11.120;2022-11-15T04:02:52;3.50;99.90
18218;DHT22;9234;49.344;11.120;2022-11-15T04:05:39;3.50;99.90
18218;DHT22;9234;49.344;11.120;2022-11-15T04:08:27;3.40;99.90
18218;DHT22;9234;49.344;11.120;2022-11-15T04:11:14;3.40;99.90
18218;DHT22;9234;49.344;11.120;2022-11-15T04:14:01;3.40;99.90
18218;DHT22;9234;49.344;11.120;2022-11-15T04:16:48;3.40;99.90
18218;DHT22;9234;49.344;11.120;2022-11-15T04:19:35;3.30;99.90
18218;DHT22;9234;49.344;11.120;2022-11-15T04:22:40;3.30;99.90
18218;DHT22;9234;49.344;11.120;2022-11-15T04:25:46;3.30;99.90
18218;DHT22;9234;49.344;11.120;2022-11-15T04:28:36;3.20;99.90
18218;DHT22;9234;49.344;11.120;2022-11-15T04:31:43;3.20;99.90
18218;DHT22;9234;49.344;11.120;2022-11-15T04:34:30;3.10;99.90
18218;DHT22;9234;49.344;11.120;2022-11-15T04:37:17;3.10;99.90
18218;DHT22;9234;49.344;11.120;2022-11-15T04:40:04;3.10;99.90
18218;DHT22;9234;49.344;11.120;2022-11-15T04:42:54;3.00;99.90
18218;DHT22;9234;49.344;11.120;2022-11-15T04:45:47;3.00;99.90
18218;DHT22;9234;49.344;11.120;2022-11-15T04:48:34;2.90;99.90
18218;DHT22;9234;49.344;11.120;2022-11-15T04:51:22;2.90;99.90
18218;DHT22;9234;49.344;11.120;2022-11-15T04:54:10;2.90;99.90
18218;DHT22;9234;49.344;11.120;2022-11-15T04:56:56;2.90;99.90
18218;DHT22;9234;49.344;11.120;2022-11-15T04:59:45;2.90;99.90
18218;DHT22;9234;49.344;11.120;2022-11-15T05:02:32;2.80;99.90
18218;DHT22;9234;49.344;11.120;2022-11-15T05:05:33;2.80;99.90
18218;DHT22;9234;49.344;11.120;2022-11-15T05:08:20;2.80;99.90
18218;DHT22;9234;49.344;11.120;2022-11-15T05:11:07;2.80;99.90
18218;DHT22;9234;49.344;11.120;2022-11-15T05:13:54;2.80;99.90
18218;DHT22;9234;49.344;11.120;2022-11-15T05:16:43;2.70;99.90
18218;DHT22;9234;49.344;11.120;2022-11-15T05:19:29;2.70;99.90
18218;DHT22;9234;49.344;11.120;2022-11-15T05:22:16;2.70;99.90
18218;DHT22;9234;49.344;11.120;2022-11-15T05:25:04;2.60;99.90
18218;DHT22;9234;49.344;11.120;2022-11-15T05:27:52;2.60;99.90
18218;DHT22;9234;49.344;11.120;2022-11-15T05:30:39;2.70;99.90
18218;DHT22;9234;49.344;11.120;2022-11-15T05:33:27;2.60;99.90
18218;DHT22;9234;49.344;11.120;2022-11-15T05:36:17;2.70;99.90
18218;DHT22;9234;49.344;11.120;2022-11-15T05:39:12;2.70;99.90
18218;DHT22;9234;49.344;11.120;2022-11-15T05:42:01;2.70;99.90
18218;DHT22;9234;49.344;11.120;2022-11-15T05:44:52;2.70;99.90
18218;DHT22;9234;49.344;11.120;2022-11-15T05:47:39;2.70;99.90
18218;DHT22;9234;49.344;11.120;2022-11-15T05:50:28;2.80;99.90
18218;DHT22;9234;49.344;11.120;2022-11-15T05:53:17;2.80;99.90
18218;DHT22;9234;49.344;11.120;2022-11-15T05:56:09;2.80;99.90
18218;DHT22;9234;49.344;11.120;2022-11-15T05:58:57;2.90;99.90
18218;DHT22;9234;49.344;11.120;2022-11-15T06:01:45;2.90;99.90
18218;DHT22;9234;49.344;11.120;2022-11-15T06:04:32;2.90;99.90
18218;DHT22;9234;49.344;11.120;2022-11-15T06:07:21;2.90;99.90
18218;DHT22;9234;49.344;11.120;2022-11-15T06:10:08;3.00;99.90
18218;DHT22;9234;49.344;11.120;2022-11-15T06:12:59;3.00;99.90
18218;DHT22;9234;49.344;11.120;2022-11-15T06:15:47;3.00;99.90
18218;DHT22;9234;49.344;11.120;2022-11-15T06:18:34;3.00;99.90
18218;DHT22;9234;49.344;11.120;2022-11-15T06:21:21;3.10;99.90
18218;DHT22;9234;49.344;11.120;2022-11-15T06:24:10;3.00;99.90
18218;DHT22;9234;49.344;11.120;2022-11-15T06:26:57;3.00;99.90
18218;DHT22;9234;49.344;11.120;2022-11-15T06:29:44;3.00;99.90
18218;DHT22;9234;49.344;11.120;2022-11-15T06:32:30;3.10;99.90
18218;DHT22;9234;49.344;11.120;2022-11-15T06:35:17;3.10;99.90
18218;DHT22;9234;49.344;11.120;2022-11-15T06:38:06;3.10;99.90
18218;DHT22;9234;49.344;11.120;2022-11-15T06:40:55;3.10;99.90
18218;DHT22;9234;49.344;11.120;2022-11-15T06:43:47;3.10;99.90
18218;DHT22;9234;49.344;11.120;2022-11-15T06:46:34;3.10;99.90
18218;DHT22;9234;49.344;11.120;2022-11-15T06:49:21;3.20;99.90
18218;DHT22;9234;49.344;11.120;2022-11-15T06:52:08;3.10;99.90
18218;DHT22;9234;49.344;11.120;2022-11-15T06:54:55;3.20;99.90
18218;DHT22;9234;49.344;11.120;2022-11-15T06:57:50;3.20;99.90
18218;DHT22;9234;49.344;11.120;2022-11-15T07:00:38;3.20;99.90
18218;DHT22;9234;49.344;11.120;2022-11-15T07:03:25;3.20;99.90
18218;DHT22;9234;49.344;11.120;2022-11-15T07:06:12;3.20;99.90
18218;DHT22;9234;49.344;11.120;2022-11-15T07:08:59;3.20;99.90
18218;DHT22;9234;49.344;11.120;2022-11-15T07:11:48;3.20;99.90
18218;DHT22;9234;49.344;11.120;2022-11-15T07:14:36;3.30;99.90
18218;DHT22;9234;49.344;11.120;2022-11-15T07:17:23;3.30;99.90
18218;DHT22;9234;49.344;11.120;2022-11-15T07:20:11;3.30;99.90
18218;DHT22;9234;49.344;11.120;2022-11-15T07:23:00;3.40;99.90
18218;DHT22;9234;49.344;11.120;2022-11-15T07:25:47;3.50;99.90
18218;DHT22;9234;49.344;11.120;2022-11-15T07:28:35;3.60;99.90
18218;DHT22;9234;49.344;11.120;2022-11-15T07:31:23;3.60;99.90
18218;DHT22;9234;49.344;11.120;2022-11-15T07:34:10;3.70;99.90
18218;DHT22;9234;49.344;11.120;2022-11-15T07:36:57;3.80;99.90
18218;DHT22;9234;49.344;11.120;2022-11-15T07:39:44;3.90;99.90
18218;DHT22;9234;49.344;11.120;2022-11-15T07:42:31;4.00;99.90
18218;DHT22;9234;49.344;11.120;2022-11-15T07:45:40;4.10;99.90
18218;DHT22;9234;49.344;11.120;2022-11-15T07:48:30;4.30;99.90
18218;DHT22;9234;49.344;11.120;2022-11-15T07:51:28;4.40;99.90
18218;DHT22;9234;49.344;11.120;2022-11-15T07:54:16;4.50;99.90
18218;DHT22;9234;49.344;11.120;2022-11-15T07:57:04;4.70;99.90
18218;DHT22;9234;49.344;11.120;2022-11-15T07:59:52;4.80;99.90
18218;DHT22;9234;49.344;11.120;2022-11-15T08:02:39;5.00;99.90
18218;DHT22;9234;49.344;11.120;2022-11-15T08:05:27;5.10;99.90
18218;DHT22;9234;49.344;11.120;2022-11-15T08:08:14;5.30;99.90
18218;DHT22;9234;49.344;11.120;2022-11-15T08:11:01;5.50;99.90
18218;DHT22;9234;49.344;11.120;2022-11-15T08:13:48;5.60;99.90
18218;DHT22;9234;49.344;11.120;2022-11-15T08:16:35;5.80;99.90
18218;DHT22;9234;49.344;11.120;2022-11-15T08:19:22;5.90;99.90
18218;DHT22;9234;49.344;11.120;2022-11-15T08:22:10;6.10;99.90
18218;DHT22;9234;49.344;11.120;2022-11-15T08:24:58;6.20;99.90
18218;DHT22;9234;49.344;11.120;2022-11-15T08:27:45;6.30;99.90
18218;DHT22;9234;49.344;11.120;2022-11-15T08:30:35;6.40;99.90
18218;DHT22;9234;49.344;11.120;2022-11-15T08:33:23;6.50;99.90
18218;DHT22;9234;49.344;11.120;2022-11-15T08:36:13;6.60;99.90
18218;DHT22;9234;49.344;11.120;2022-11-15T08:39:03;6.70;99.90
18218;DHT22;9234;49.344;11.120;2022-11-15T08:41:51;6.90;99.90
18218;DHT22;9234;49.344;11.120;2022-11-15T08:44:38;7.00;99.90
18218;DHT22;9234;49.344;11.120;2022-11-15T08:47:24;7.10;99.90
18218;DHT22;9234;49.344;11.120;2022-11-15T08:50:11;7.20;99.90
18218;DHT22;9234;49.344;11.120;2022-11-15T08:53:04;7.30;99.90
18218;DHT22;9234;49.344;11.120;2022-11-15T08:55:53;7.50;99.90
18218;DHT22;9234;49.344;11.120;2022-11-15T08:58:40;7.60;99.90
18218;DHT22;9234;49.344;11.120;2022-11-15T09:01:28;7.80;99.90
18218;DHT22;9234;49.344;11.120;2022-11-15T09:04:15;7.90;99.90
18218;DHT22;9234;49.344;11.120;2022-11-15T09:07:02;8.00;99.90
18218;DHT22;9234;49.344;11.120;2022-11-15T09:09:49;8.20;99.90
18218;DHT22;9234;49.344;11.120;2022-11-15T09:12:37;8.30;99.90
18218;DHT22;9234;49.344;11.120;2022-11-15T09:15:24;8.50;99.90
18218;DHT22;9234;49.344;11.120;2022-11-15T09:18:11;8.60;99.90
18218;DHT22;9234;49.344;11.120;2022-11-15T09:20:58;8.80;99.90
18218;DHT22;9234;49.344;11.120;2022-11-15T09:23:50;8.90;99.90
18218;DHT22;9234;49.344;11.120;2022-11-15T09:26:38;9.10;99.90
18218;DHT22;9234;49.344;11.120;2022-11-15T09:29:26;9.30;99.90
18218;DHT22;9234;49.344;11.120;2022-11-15T09:32:12;9.50;99.90
18218;DHT22;9234;49.344;11.120;2022-11-15T09:34:59;9.60;99.90
18218;DHT22;9234;49.344;11.120;2022-11-15T09:37:46;9.70;99.90
18218;DHT22;9234;49.344;11.120;2022-11-15T09:40:40;9.90;99.90
18218;DHT22;9234;49.344;11.120;2022-11-15T09:43:32;10.10;99.90
18218;DHT22;9234;49.344;11.120;2022-11-15T09:46:31;10.20;99.90
18218;DHT22;9234;49.344;11.120;2022-11-15T09:49:34;10.30;99.90
18218;DHT22;9234;49.344;11.120;2022-11-15T09:52:15;10.50;99.90
18218;DHT22;9234;49.344;11.120;2022-11-15T09:54:48;10.50;99.90
18218;DHT22;9234;49.344;11.120;2022-11-15T09:57:30;10.60;99.90
18218;DHT22;9234;49.344;11.120;2022-11-15T10:00:09;10.70;99.90
18218;DHT22;9234;49.344;11.120;2022-11-15T10:03:12;10.80;99.90
18218;DHT22;9234;49.344;11.120;2022-11-15T10:05:45;11.00;99.90
18218;DHT22;9234;49.344;11.120;2022-11-15T10:08:30;11.20;99.90
18218;DHT22;9234;49.344;11.120;2022-11-15T10:11:07;11.30;99.90
18218;DHT22;9234;49.344;11.120;2022-11-15T10:14:00;11.40;99.90
18218;DHT22;9234;49.344;11.120;2022-11-15T10:17:01;11.50;99.90
18218;DHT22;9234;49.344;11.120;2022-11-15T10:19:47;11.60;99.90
18218;DHT22;9234;49.344;11.120;2022-11-15T10:22:30;11.70;99.90
18218;DHT22;9234;49.344;11.120;2022-11-15T10:25:17;11.80;99.90
18218;DHT22;9234;49.344;11.120;2022-11-15T10:27:53;12.00;99.90
18218;DHT22;9234;49.344;11.120;2022-11-15T10:30:33;12.10;99.90
18218;DHT22;9234;49.344;11.120;2022-11-15T10:33:26;12.30;99.90
18218;DHT22;9234;49.344;11.120;2022-11-15T10:36:26;12.40;99.90
18218;DHT22;9234;49.344;11.120;2022-11-15T10:38:57;12.60;99.90
18218;DHT22;9234;49.344;11.120;2022-11-15T10:41:36;12.70;99.90
18218;DHT22;9234;49.344;11.120;2022-11-15T10:44:21;12.80;99.90
18218;DHT22;9234;49.344;11.120;2022-11-15T10:47:19;12.90;99.90
18218;DHT22;9234;49.344;11.120;2022-11-15T10:49:56;13.00;99.90
18218;DHT22;9234;49.344;11.120;2022-11-15T10:52:35;13.20;99.90
18218;DHT22;9234;49.344;11.120;2022-11-15T10:55:21;13.30;99.90
18218;DHT22;9234;49.344;11.120;2022-11-15T10:57:54;13.40;99.90
18218;DHT22;9234;49.344;11.120;2022-11-15T11:00:30;13.60;99.90
18218;DHT22;9234;49.344;11.120;2022-11-15T11:03:05;13.70;99.90
18218;DHT22;9234;49.344;11.120;2022-11-15T11:05:36;13.80;99.90
18218;DHT22;9234;49.344;11.120;2022-11-15T11:08:22;13.90;99.90
18218;DHT22;9234;49.344;11.120;2022-11-15T11:10:53;14.10;99.90
18218;DHT22;9234;49.344;11.120;2022-11-15T11:13:30;14.20;99.90
18218;DHT22;9234;49.344;11.120;2022-11-15T11:16:15;14.30;99.90
18218;DHT22;9234;49.344;11.120;2022-11-15T11:18:54;14.40;99.90
18218;DHT22;9234;49.344;11.120;2022-11-15T11:21:37;14.60;99.90
18218;DHT22;9234;49.344;11.120;2022-11-15T11:24:21;14.70;99.90
18218;DHT22;9234;49.344;11.120;2022-11-15T11:27:12;14.80;99.90
18218;DHT22;9234;49.344;11.120;2022-11-15T11:30:03;14.90;99.90
18218;DHT22;9234;49.344;11.120;2022-11-15T11:33:04;15.00;99.90
18218;DHT22;9234;49.344;11.120;2022-11-15T11:35:46;15.10;99.90
18218;DHT22;9234;49.344;11.120;2022-11-15T11:38:41;15.20;99.90
18218;DHT22;9234;49.344;11.120;2022-11-15T11:41:51;15.40;99.90
18218;DHT22;9234;49.344;11.120;2022-11-15T11:44:33;15.50;99.90
18218;DHT22;9234;49.344;11.120;2022-11-15T11:47:10;15.70;99.90
18218;DHT22;9234;49.344;11.120;2022-11-15T11:49:43;15.80;99.90
18218;DHT22;9234;49.344;11.120;2022-11-15T11:52:18;15.90;99.90
18218;DHT22;9234;49.344;11.120;2022-11-15T11:55:00;16.00;99.90
18218;DHT22;9234;49.344;11.120;2022-11-15T11:57:40;16.20;99.90
18218;DHT22;9234;49.344;11.120;2022-11-15T12:00:17;16.30;99.90
18218;DHT22;9234;49.344;11.120;2022-11-15T12:02:54;16.40;99.90
18218;DHT22;9234;49.344;11.120;2022-11-15T12:05:35;16.40;99.90
18218;DHT22;9234;49.344;11.120;2022-11-15T12:08:21;16.50;99.90
18218;DHT22;9234;49.344;11.120;2022-11-15T12:11:00;16.70;99.90
18218;DHT22;9234;49.344;11.120;2022-11-15T12:13:36;16.80;99.90
18218;DHT22;9234;49.344;11.120;2022-11-15T12:16:10;16.90;99.90
18218;DHT22;9234;49.344;11.120;2022-11-15T12:18:46;17.00;99.90
18218;DHT22;9234;49.344;11.120;2022-11-15T12:21:31;17.10;99.90
18218;DHT22;9234;49.344;11.120;2022-11-15T12:24:08;17.20;99.90
18218;DHT22;9234;49.344;11.120;2022-11-15T12:26:48;17.30;99.90
18218;DHT22;9234;49.344;11.120;2022-11-15T12:29:26;17.50;99.90
18218;DHT22;9234;49.344;11.120;2022-11-15T12:32:01;17.70;99.90
18218;DHT22;9234;49.344;11.120;2022-11-15T12:34:38;17.70;99.30
18218;DHT22;9234;49.344;11.120;2022-11-15T12:37:46;17.80;99.00
18218;DHT22;9234;49.344;11.120;2022-11-15T12:40:27;17.90;98.90
18218;DHT22;9234;49.344;11.120;2022-11-15T12:43:03;17.90;99.90
18218;DHT22;9234;49.344;11.120;2022-11-15T12:45:48;18.00;99.90
18218;DHT22;9234;49.344;11.120;2022-11-15T12:54:55;18.70;99.10
18218;DHT22;9234;49.344;11.120;2022-11-15T12:57:33;19.00;99.30
18218;DHT22;9234;49.344;11.120;2022-11-15T13:00:44;19.20;98.60
18218;DHT22;9234;49.344;11.120;2022-11-15T13:03:29;19.60;97.50
18218;DHT22;9234;49.344;11.120;2022-11-15T13:06:04;19.70;96.70
18218;DHT22;9234;49.344;11.120;2022-11-15T13:08:47;19.80;96.10
18218;DHT22;9234;49.344;11.120;2022-11-15T13:11:47;19.70;95.70
18218;DHT22;9234;49.344;11.120;2022-11-15T13:14:40;19.50;95.10
18218;DHT22;9234;49.344;11.120;2022-11-15T13:17:24;19.10;94.80
18218;DHT22;9234;49.344;11.120;2022-11-15T13:20:27;18.80;95.40
18218;DHT22;9234;49.344;11.120;2022-11-15T13:23:02;18.50;96.00
18218;DHT22;9234;49.344;11.120;2022-11-15T13:25:57;18.30;96.40
18218;DHT22;9234;49.344;11.120;2022-11-15T13:28:41;18.00;96.50
18218;DHT22;9234;49.344;11.120;2022-11-15T13:31:36;17.70;96.60
18218;DHT22;9234;49.344;11.120;2022-11-15T13:34:22;17.50;97.00
18218;DHT22;9234;49.344;11.120;2022-11-15T13:37:29;17.30;97.40
18218;DHT22;9234;49.344;11.120;2022-11-15T13:40:21;17.10;97.90
18218;DHT22;9234;49.344;11.120;2022-11-15T13:42:54;16.90;98.20
18218;DHT22;9234;49.344;11.120;2022-11-15T13:45:23;16.80;98.60
18218;DHT22;9234;49.344;11.120;2022-11-15T13:47:54;16.80;98.70
18218;DHT22;9234;49.344;11.120;2022-11-15T13:50:26;16.70;98.70
18218;DHT22;9234;49.344;11.120;2022-11-15T13:53:02;16.60;99.10
18218;DHT22;9234;49.344;11.120;2022-11-15T13:55:32;16.60;99.50
18218;DHT22;9234;49.344;11.120;2022-11-15T13:58:03;16.60;99.80
18218;DHT22;9234;49.344;11.120;2022-11-15T14:00:36;16.60;99.90
18218;DHT22;9234;49.344;11.120;2022-11-15T14:03:12;16.60;99.90
18218;DHT22;9234;49.344;11.120;2022-11-15T14:06:00;16.60;99.90
18218;DHT22;9234;49.344;11.120;2022-11-15T14:08:33;16.60;99.90
18218;DHT22;9234;49.344;11.120;2022-11-15T14:11:07;16.50;99.90
18218;DHT22;9234;49.344;11.120;2022-11-15T14:13:37;16.50;99.90
18218;DHT22;9234;49.344;11.120;2022-11-15T14:16:17;16.40;99.90
18218;DHT22;9234;49.344;11.120;2022-11-15T14:18:49;16.40;99.90
18218;DHT22;9234;49.344;11.120;2022-11-15T14:21:19;16.30;99.90
18218;DHT22;9234;49.344;11.120;2022-11-15T14:23:49;16.20;99.90
18218;DHT22;9234;49.344;11.120;2022-11-15T14:26:29;16.00;99.90
18218;DHT22;9234;49.344;11.120;2022-11-15T14:29:23;15.80;99.90
18218;DHT22;9234;49.344;11.120;2022-11-15T14:31:52;15.70;99.90
18218;DHT22;9234;49.344;11.120;2022-11-15T14:34:21;15.50;99.90
18218;DHT22;9234;49.344;11.120;2022-11-15T14:36:49;15.40;99.90
18218;DHT22;9234;49.344;11.120;2022-11-15T14:39:19;15.20;99.90
18218;DHT22;9234;49.344;11.120;2022-11-15T14:41:48;15.10;99.90
18218;DHT22;9234;49.344;11.120;2022-11-15T14:44:16;15.00;99.90
18218;DHT22;9234;49.344;11.120;2022-11-15T14:46:47;14.80;99.90
18218;DHT22;9234;49.344;11.120;2022-11-15T14:49:15;14.70;99.90
18218;DHT22;9234;49.344;11.120;2022-11-15T14:51:43;14.60;99.90
18218;DHT22;9234;49.344;11.120;2022-11-15T14:54:12;14.40;99.90
18218;DHT22;9234;49.344;11.120;2022-11-15T14:56:41;14.20;99.90
18218;DHT22;9234;49.344;11.120;2022-11-15T14:59:10;14.10;99.90
18218;DHT22;9234;49.344;11.120;2022-11-15T15:01:38;14.00;99.90
18218;DHT22;9234;49.344;11.120;2022-11-15T15:04:08;13.80;99.90
18218;DHT22;9234;49.344;11.120;2022-11-15T15:06:36;13.60;99.90
18218;DHT22;9234;49.344;11.120;2022-11-15T15:09:05;13.40;99.90
18218;DHT22;9234;49.344;11.120;2022-11-15T15:11:34;13.30;99.90
18218;DHT22;9234;49.344;11.120;2022-11-15T15:14:03;13.10;99.90
18218;DHT22;9234;49.344;11.120;2022-11-15T15:16:31;12.90;99.90
18218;DHT22;9234;49.344;11.120;2022-11-15T15:18:59;12.80;99.90
18218;DHT22;9234;49.344;11.120;2022-11-15T15:21:28;12.60;99.90
18218;DHT22;9234;49.344;11.120;2022-11-15T15:24:03;12.50;99.90
18218;DHT22;9234;49.344;11.120;2022-11-15T15:26:31;12.30;99.90
18218;DHT22;9234;49.344;11.120;2022-11-15T15:29:04;12.20;99.90
18218;DHT22;9234;49.344;11.120;2022-11-15T15:31:33;12.00;99.90
18218;DHT22;9234;49.344;11.120;2022-11-15T15:34:01;11.80;99.90
18218;DHT22;9234;49.344;11.120;2022-11-15T15:36:30;11.70;99.90
18218;DHT22;9234;49.344;11.120;2022-11-15T15:38:58;11.60;99.90
18218;DHT22;9234;49.344;11.120;2022-11-15T15:41:26;11.40;99.90
18218;DHT22;9234;49.344;11.120;2022-11-15T15:43:54;11.30;99.90
18218;DHT22;9234;49.344;11.120;2022-11-15T15:46:24;11.20;99.90
18218;DHT22;9234;49.344;11.120;2022-11-15T15:48:52;11.10;99.90
18218;DHT22;9234;49.344;11.120;2022-11-15T15:51:20;11.00;99.90
18218;DHT22;9234;49.344;11.120;2022-11-15T15:53:49;10.90;99.90
18218;DHT22;9234;49.344;11.120;2022-11-15T15:56:19;10.80;99.90
18218;DHT22;9234;49.344;11.120;2022-11-15T15:58:47;10.70;99.90
18218;DHT22;9234;49.344;11.120;2022-11-15T16:01:15;10.60;99.90
18218;DHT22;9234;49.344;11.120;2022-11-15T16:03:45;10.60;99.90
18218;DHT22;9234;49.344;11.120;2022-11-15T16:06:35;10.50;99.90
18218;DHT22;9234;49.344;11.120;2022-11-15T16:09:05;10.40;99.90
18218;DHT22;9234;49.344;11.120;2022-11-15T16:11:41;10.30;99.90
18218;DHT22;9234;49.344;11.120;2022-11-15T16:14:09;10.30;99.90
18218;DHT22;9234;49.344;11.120;2022-11-15T16:16:40;10.20;99.90
18218;DHT22;9234;49.344;11.120;2022-11-15T16:19:10;10.20;99.90
18218;DHT22;9234;49.344;11.120;2022-11-15T16:21:39;10.20;99.90
18218;DHT22;9234;49.344;11.120;2022-11-15T16:24:07;10.10;99.90
18218;DHT22;9234;49.344;11.120;2022-11-15T16:26:36;10.10;99.90
18218;DHT22;9234;49.344;11.120;2022-11-15T16:29:05;10.10;99.90
18218;DHT22;9234;49.344;11.120;2022-11-15T16:31:35;10.00;99.90
18218;DHT22;9234;49.344;11.120;2022-11-15T16:34:03;10.00;99.90
18218;DHT22;9234;49.344;11.120;2022-11-15T16:36:34;9.90;99.90
18218;DHT22;9234;49.344;11.120;2022-11-15T16:39:03;9.90;99.90
18218;DHT22;9234;49.344;11.120;2022-11-15T16:41:31;9.90;99.90
18218;DHT22;9234;49.344;11.120;2022-11-15T16:44:00;9.80;99.90
18218;DHT22;9234;49.344;11.120;2022-11-15T16:46:28;9.80;99.90
18218;DHT22;9234;49.344;11.120;2022-11-15T16:48:56;9.80;99.90
18218;DHT22;9234;49.344;11.120;2022-11-15T16:51:25;9.70;99.90
18218;DHT22;9234;49.344;11.120;2022-11-15T16:53:54;9.70;99.90
18218;DHT22;9234;49.344;11.120;2022-11-15T16:56:24;9.70;99.90
18218;DHT22;9234;49.344;11.120;2022-11-15T16:58:54;9.60;99.90
18218;DHT22;9234;49.344;11.120;2022-11-15T17:01:26;9.60;99.90
18218;DHT22;9234;49.344;11.120;2022-11-15T17:03:56;9.60;99.90
18218;DHT22;9234;49.344;11.120;2022-11-15T17:06:26;9.60;99.90
18218;DHT22;9234;49.344;11.120;2022-11-15T17:08:56;9.60;99.90
18218;DHT22;9234;49.344;11.120;2022-11-15T17:11:24;9.60;99.90
18218;DHT22;9234;49.344;11.120;2022-11-15T17:13:56;9.50;99.90
18218;DHT22;9234;49.344;11.120;2022-11-15T17:16:25;9.50;99.90
18218;DHT22;9234;49.344;11.120;2022-11-15T17:18:53;9.50;99.90
18218;DHT22;9234;49.344;11.120;2022-11-15T17:21:22;9.50;99.90
18218;DHT22;9234;49.344;11.120;2022-11-15T17:23:50;9.50;99.90
18218;DHT22;9234;49.344;11.120;2022-11-15T17:26:21;9.50;99.90
18218;DHT22;9234;49.344;11.120;2022-11-15T17:28:57;9.40;99.90
18218;DHT22;9234;49.344;11.120;2022-11-15T17:31:27;9.40;99.90
18218;DHT22;9234;49.344;11.120;2022-11-15T17:33:56;9.40;99.90